Time;durP1;ratioP1;P1;durP2;ratioP2;P2;SDS_P1;SDS_P2;PMS_P1;PMS_P2;Temp;Humidity;BMP_temperature;BMP_pressure;BME280_temperature;BME280_humidity;BME280_pressure;Samples;Min_cycle;Max_cycle;Signal;HPM_P1;HPM_P2
2022/10/18 00:02:04;;;;;;;7.47;4.45;;;;;;;14.88;100.00;101252.78;5039559;28;20040;-75
2022/10/18 00:04:30;;;;;;;7.50;4.82;;;;;;;14.87;100.00;101262.28;5009501;28;20089;-75
2022/10/18 00:06:55;;;;;;;6.82;4.85;;;;;;;14.86;100.00;101266.22;5022967;28;20055;-75
2022/10/18 00:09:21;;;;;;;6.72;4.43;;;;;;;14.84;100.00;101265.69;5038810;28;20075;-75
2022/10/18 00:11:46;;;;;;;7.32;4.93;;;;;;;14.83;100.00;101272.44;5014837;28;20021;-76
2022/10/18 00:14:12;;;;;;;6.55;4.80;;;;;;;14.83;100.00;101266.84;4999622;28;20073;-76
2022/10/18 00:16:37;;;;;;;7.97;4.45;;;;;;;14.83;100.00;101264.06;5018088;28;20041;-76
2022/10/18 00:19:03;;;;;;;8.10;4.50;;;;;;;14.82;100.00;101264.34;4999835;28;20026;-76
2022/10/18 00:21:28;;;;;;;10.88;5.85;;;;;;;14.81;100.00;101263.50;4983094;28;20093;-75
2022/10/18 00:23:54;;;;;;;10.05;4.90;;;;;;;14.81;100.00;101263.50;4999638;28;20033;-75
2022/10/18 00:26:23;;;;;;;7.85;5.07;;;;;;;14.81;100.00;101263.50;5015281;28;20030;-75
2022/10/18 00:28:52;;;;;;;7.47;4.85;;;;;;;14.81;100.00;101263.50;4999547;28;20479;-75
2022/10/18 00:31:23;;;;;;;9.82;4.85;;;;;;;14.82;100.00;101264.34;4993868;28;20564;-75
2022/10/18 00:33:52;;;;;;;9.52;4.88;;;;;;;14.82;100.00;101269.94;5039051;28;20060;-75
2022/10/18 00:36:18;;;;;;;9.00;5.20;;;;;;;14.83;100.00;101264.06;5022634;28;20542;-75
2022/10/18 00:38:43;;;;;;;10.95;5.03;;;;;;;14.83;100.00;101261.25;5022587;28;20029;-75
2022/10/18 00:41:12;;;;;;;8.93;5.57;;;;;;;14.82;100.00;101265.19;5006100;28;20029;-75
2022/10/18 00:43:58;;;;;;;9.90;6.57;;;;;;;14.84;100.00;101256.50;5022755;28;20493;-75
2022/10/18 00:46:25;;;;;;;14.05;8.88;;;;;;;14.86;100.00;101263.44;5022801;28;20029;-75
2022/10/18 00:48:51;;;;;;;9.90;6.45;;;;;;;14.87;100.00;101262.28;5055047;28;20095;-75
2022/10/18 00:51:18;;;;;;;11.02;6.60;;;;;;;14.88;100.00;101257.56;5022250;28;20029;-76
2022/10/18 00:53:43;;;;;;;13.32;8.90;;;;;;;14.90;100.00;101266.44;5038790;28;20095;-75
2022/10/18 00:56:08;;;;;;;12.18;8.25;;;;;;;14.88;100.00;101266.78;5005921;28;20025;-75
2022/10/18 00:58:34;;;;;;;16.50;9.10;;;;;;;14.90;100.00;101260.84;5005655;28;20036;-75
2022/10/18 01:00:59;;;;;;;9.10;6.55;;;;;;;14.89;100.00;101264.78;5021908;28;20553;-75
2022/10/18 01:03:25;;;;;;;12.90;8.93;;;;;;;14.91;100.00;101262.53;4994783;28;20025;-76
2022/10/18 01:05:50;;;;;;;11.63;7.18;;;;;;;14.91;100.00;101257.75;5012598;28;20066;-76
2022/10/18 01:08:28;;;;;;;10.55;6.97;;;;;;;14.92;100.00;101259.41;5029880;28;20025;-76
2022/10/18 01:11:10;;;;;;;11.32;6.93;;;;;;;14.95;100.00;101266.38;5021299;28;20115;-76
2022/10/18 01:14:00;;;;;;;13.90;10.13;;;;;;;14.96;100.00;101265.25;5020133;28;20038;-76
2022/10/18 01:16:30;;;;;;;13.48;8.52;;;;;;;14.98;100.00;101268.56;5034920;28;20390;-76
2022/10/18 01:19:37;;;;;;;11.45;8.00;;;;;;;14.98;100.00;101269.38;5015767;28;20033;-76
2022/10/18 01:22:12;;;;;;;14.07;8.48;;;;;;;15.01;100.00;101267.13;5057103;28;20044;-76
2022/10/18 01:24:59;;;;;;;16.80;10.98;;;;;;;15.04;100.00;101263.69;4982717;28;20124;-76
2022/10/18 01:27:44;;;;;;;14.48;9.38;;;;;;;15.03;100.00;101256.44;5014169;28;20433;-75
2022/10/18 01:30:22;;;;;;;11.95;8.43;;;;;;;15.05;100.00;101262.59;5008393;28;20029;-75
2022/10/18 01:32:49;;;;;;;16.67;10.00;;;;;;;15.07;100.00;101263.09;5021584;28;20038;-75
2022/10/18 01:35:17;;;;;;;19.48;10.30;;;;;;;15.09;100.00;101267.25;5028345;28;20036;-76
2022/10/18 01:37:44;;;;;;;18.48;10.73;;;;;;;15.09;100.00;101267.25;5028523;28;20377;-76
2022/10/18 01:40:09;;;;;;;25.98;15.27;;;;;;;15.12;100.00;101265.81;5028173;28;20021;-76
2022/10/18 01:42:35;;;;;;;18.10;11.65;;;;;;;15.11;100.00;101264.97;5011768;28;20113;-76
2022/10/18 01:45:00;;;;;;;26.92;15.00;;;;;;;15.14;100.00;101269.13;5012013;28;20028;-75
2022/10/18 01:47:26;;;;;;;28.30;14.50;;;;;;;15.15;100.00;101265.19;5028068;28;20112;-76
2022/10/18 01:49:58;;;;;;;27.48;16.70;;;;;;;15.16;100.00;101264.06;5061090;28;20025;-76
2022/10/18 01:52:24;;;;;;;32.30;16.33;;;;;;;15.19;100.00;101271.84;5044653;28;20095;-76
2022/10/18 01:54:49;;;;;;;29.20;17.30;;;;;;;15.20;100.00;101270.69;5027991;28;20029;-75
2022/10/18 01:57:38;;;;;;;25.42;17.75;;;;;;;15.22;100.00;101271.22;5028096;28;20029;-75
2022/10/18 02:00:15;;;;;;;28.02;17.75;;;;;;;15.25;100.00;101266.97;5044800;28;20425;-76
2022/10/18 02:02:51;;;;;;;26.33;16.73;;;;;;;15.26;100.00;101269.47;5039232;28;20029;-76
2022/10/18 02:05:59;;;;;;;33.78;16.10;;;;;;;15.28;100.00;101258.78;5037239;28;20476;-75
2022/10/18 02:08:27;;;;;;;23.83;15.00;;;;;;;15.29;100.00;101262.41;5061001;28;20127;-75
2022/10/18 02:10:58;;;;;;;20.95;14.48;;;;;;;15.30;100.00;101269.69;5027334;28;20039;-75
2022/10/18 02:13:25;;;;;;;23.13;14.65;;;;;;;15.32;100.00;101273.84;5014544;28;20064;-76
2022/10/18 02:15:53;;;;;;;20.58;13.63;;;;;;;15.33;100.00;101267.09;5008167;28;20033;-76
2022/10/18 02:18:24;;;;;;;20.45;14.55;;;;;;;15.35;100.00;101270.44;5018407;28;20030;-75
2022/10/18 02:20:50;;;;;;;22.38;14.73;;;;;;;15.35;100.00;101262.03;5015592;28;20040;-76
2022/10/18 02:23:15;;;;;;;20.40;14.05;;;;;;;15.36;100.00;101269.28;5033267;28;20025;-75
2022/10/18 02:25:41;;;;;;;30.15;18.60;;;;;;;15.39;100.00;101267.84;5017187;28;20129;-76
2022/10/18 02:28:06;;;;;;;22.20;15.60;;;;;;;15.38;100.00;101266.19;5005537;28;20088;-75
2022/10/18 02:30:37;;;;;;;21.20;14.48;;;;;;;15.41;100.00;101266.41;5040949;28;20136;-75
2022/10/18 02:33:06;;;;;;;26.42;17.05;;;;;;;15.42;100.00;101273.66;5020139;28;20065;-76
2022/10/18 02:35:34;;;;;;;22.27;16.55;;;;;;;15.44;100.00;101272.53;5017944;28;20037;-75
2022/10/18 02:38:00;;;;;;;27.92;16.90;;;;;;;15.45;100.00;101271.38;5015612;28;20486;-76
2022/10/18 02:40:25;;;;;;;25.77;15.80;;;;;;;15.46;100.00;101281.41;5004787;28;20227;-76
2022/10/18 02:42:56;;;;;;;26.35;15.85;;;;;;;15.44;100.00;101278.94;5021328;28;20112;-75
2022/10/18 02:45:22;;;;;;;26.23;17.80;;;;;;;15.47;100.00;101275.53;4985152;28;20509;-75
2022/10/18 02:47:48;;;;;;;23.67;17.00;;;;;;;15.49;100.00;101278.00;5017373;28;20041;-76
2022/10/18 02:50:13;;;;;;;34.28;18.50;;;;;;;15.49;100.00;101275.19;5017302;28;20108;-75
2022/10/18 02:52:38;;;;;;;24.38;17.02;;;;;;;15.48;100.00;101271.59;5019542;28;20065;-76
2022/10/18 02:55:04;;;;;;;20.65;14.52;;;;;;;15.49;100.00;101269.59;5007893;28;20029;-75
2022/10/18 02:57:30;;;;;;;24.83;16.65;;;;;;;15.50;100.00;101268.47;5040933;28;20033;-76
2022/10/18 02:59:55;;;;;;;30.65;18.30;;;;;;;15.50;100.00;101266.50;5024409;28;20040;-75
2022/10/18 03:02:21;;;;;;;26.15;17.95;;;;;;;15.49;100.00;101272.41;5002938;28;20103;-75
2022/10/18 03:04:46;;;;;;;33.13;18.85;;;;;;;15.50;100.00;101265.69;5018295;28;20093;-76
2022/10/18 03:07:12;;;;;;;47.63;22.52;;;;;;;15.48;100.00;101265.97;5023839;28;20072;-76
2022/10/18 03:09:37;;;;;;;43.50;23.08;;;;;;;15.46;100.00;101268.28;5040510;28;20033;-75
2022/10/18 03:12:03;;;;;;;34.50;20.92;;;;;;;15.46;100.00;101268.28;5020383;28;20030;-75
2022/10/18 03:14:28;;;;;;;33.42;20.92;;;;;;;15.45;100.00;101274.16;5010636;28;20033;-75
2022/10/18 03:16:54;;;;;;;28.52;18.60;;;;;;;15.46;100.00;101285.06;5003803;28;20033;-75
2022/10/18 03:19:19;;;;;;;39.75;22.00;;;;;;;15.45;100.00;101283.41;5025898;28;20443;-76
2022/10/18 03:21:45;;;;;;;44.25;23.23;;;;;;;15.45;100.00;101279.78;5018582;28;20034;-75
2022/10/18 03:24:10;;;;;;;42.97;22.77;;;;;;;15.46;100.00;101278.63;5036874;28;20037;-75
2022/10/18 03:26:36;;;;;;;43.75;23.35;;;;;;;15.44;100.00;101284.53;5001619;28;20030;-76
2022/10/18 03:29:01;;;;;;;28.92;19.73;;;;;;;15.44;100.00;101286.53;5020084;28;20030;-75
2022/10/18 03:31:27;;;;;;;27.13;18.98;;;;;;;15.44;100.00;101287.34;5003802;28;20638;-76
2022/10/18 03:33:52;;;;;;;27.63;18.88;;;;;;;15.45;100.00;101288.16;5019975;28;20056;-75
2022/10/18 03:36:18;;;;;;;27.27;18.85;;;;;;;15.46;100.00;101278.63;5036276;28;20049;-75
2022/10/18 03:38:43;;;;;;;29.73;19.08;;;;;;;15.46;100.00;101281.41;5019960;28;20038;-75
2022/10/18 03:41:09;;;;;;;26.00;18.10;;;;;;;15.45;100.00;101276.97;5017020;28;20026;-75
2022/10/18 03:43:34;;;;;;;21.27;16.15;;;;;;;15.44;100.00;101276.16;5026959;28;20025;-76
2022/10/18 03:46:00;;;;;;;27.08;17.42;;;;;;;15.46;100.00;101278.63;5039893;28;20032;-75
2022/10/18 03:48:25;;;;;;;18.98;15.20;;;;;;;15.44;100.00;101284.53;5039782;28;20056;-75
2022/10/18 03:50:51;;;;;;;22.35;15.48;;;;;;;15.46;100.00;101278.63;5006453;28;20036;-75
2022/10/18 03:53:16;;;;;;;18.52;14.65;;;;;;;15.44;100.00;101278.94;5023253;28;20033;-75
2022/10/18 03:55:42;;;;;;;20.40;14.30;;;;;;;15.46;100.00;101273.88;5023346;28;20028;-75
2022/10/18 03:58:07;;;;;;;20.95;14.88;;;;;;;15.42;100.00;101281.22;5023126;28;20063;-75
2022/10/18 04:00:33;;;;;;;24.88;15.63;;;;;;;15.42;100.00;101284.84;5006555;28;20021;-75
2022/10/18 04:02:58;;;;;;;17.77;13.73;;;;;;;15.43;100.00;101285.66;5032036;28;20025;-75
2022/10/18 04:05:26;;;;;;;17.45;13.48;;;;;;;15.45;100.00;101288.16;5002801;28;20060;-75
2022/10/18 04:07:52;;;;;;;22.80;15.13;;;;;;;15.42;100.00;101286.81;5035982;28;20061;-76
2022/10/18 04:10:17;;;;;;;27.60;14.90;;;;;;;15.42;100.00;101296.03;5017131;28;20045;-75
2022/10/18 04:12:43;;;;;;;19.25;14.45;;;;;;;15.38;100.00;101295.00;4998517;28;20041;-76
2022/10/18 04:15:09;;;;;;;22.45;14.85;;;;;;;15.40;100.00;101287.09;5022386;28;20026;-75
2022/10/18 04:17:34;;;;;;;35.78;14.75;;;;;;;15.41;100.00;101291.59;4999602;28;20033;-76
2022/10/18 04:20:00;;;;;;;28.92;14.98;;;;;;;15.39;100.00;101295.84;5003430;28;20390;-75
2022/10/18 04:22:25;;;;;;;15.80;12.80;;;;;;;15.36;100.00;101294.47;4999874;28;20022;-75
2022/10/18 04:24:52;;;;;;;17.27;12.50;;;;;;;15.37;100.00;101292.50;5010910;28;20044;-75
2022/10/18 04:27:17;;;;;;;23.48;14.05;;;;;;;15.36;100.00;101290.84;5016206;28;20406;-75
2022/10/18 04:29:43;;;;;;;16.05;11.73;;;;;;;15.36;100.00;101294.47;4996770;28;20026;-75
2022/10/18 04:32:08;;;;;;;15.40;11.27;;;;;;;15.36;100.00;101286.06;5015807;28;20042;-75
2022/10/18 04:34:34;;;;;;;24.73;13.82;;;;;;;15.36;100.00;101296.44;4993374;28;20088;-76
2022/10/18 04:36:59;;;;;;;28.13;15.00;;;;;;;15.36;100.00;101300.06;5002612;28;20029;-76
2022/10/18 04:39:25;;;;;;;16.63;11.60;;;;;;;15.36;100.00;101302.88;4983171;28;20022;-76
2022/10/18 04:41:50;;;;;;;16.02;11.75;;;;;;;15.38;100.00;101306.19;5035502;28;20497;-76
2022/10/18 04:44:16;;;;;;;15.32;12.52;;;;;;;15.38;100.00;101306.19;4999719;28;20029;-76
2022/10/18 04:46:41;;;;;;;14.30;11.35;;;;;;;15.36;100.00;101314.06;5035534;28;20029;-76
2022/10/18 04:49:07;;;;;;;15.57;12.27;;;;;;;15.40;100.00;101308.69;5015240;28;20512;-76
2022/10/18 04:51:32;;;;;;;20.63;12.32;;;;;;;15.37;100.00;101310.13;5022076;28;20051;-76
2022/10/18 04:53:57;;;;;;;16.88;11.13;;;;;;;15.37;100.00;101301.72;5022205;28;20037;-75
2022/10/18 04:56:23;;;;;;;21.90;14.85;;;;;;;15.39;100.00;101298.63;5005136;28;20543;-75
2022/10/18 04:58:48;;;;;;;18.45;12.77;;;;;;;15.36;100.00;101300.06;5038680;28;20025;-75
2022/10/18 05:01:14;;;;;;;17.83;12.40;;;;;;;15.37;100.00;101293.31;5022257;28;20036;-75
2022/10/18 05:03:40;;;;;;;18.80;12.30;;;;;;;15.38;100.00;101306.19;5005801;28;20040;-75
2022/10/18 05:06:05;;;;;;;19.65;12.10;;;;;;;15.41;100.00;101304.75;4998709;28;20065;-75
2022/10/18 05:08:31;;;;;;;17.33;12.10;;;;;;;15.41;100.00;101308.38;5034853;28;20033;-75
2022/10/18 05:10:57;;;;;;;23.85;14.07;;;;;;;15.41;100.00;101308.38;4985017;28;20025;-75
2022/10/18 05:13:22;;;;;;;18.10;12.05;;;;;;;15.41;100.00;101310.34;5011719;28;20530;-76
2022/10/18 05:15:47;;;;;;;18.88;11.18;;;;;;;15.40;100.00;101306.69;5034726;28;20038;-75
2022/10/18 05:18:13;;;;;;;14.23;10.65;;;;;;;15.39;100.00;101315.44;4998799;28;20030;-76
2022/10/18 05:20:38;;;;;;;15.20;10.43;;;;;;;15.42;100.00;101314.81;4998753;28;20018;-76
2022/10/18 05:23:04;;;;;;;14.52;10.48;;;;;;;15.41;100.00;101319.56;5031851;28;20421;-75
2022/10/18 05:25:29;;;;;;;23.63;13.20;;;;;;;15.42;100.00;101318.44;4999048;28;20022;-75
2022/10/18 05:27:55;;;;;;;23.67;12.93;;;;;;;15.41;100.00;101315.97;4999106;28;20038;-75
2022/10/18 05:30:21;;;;;;;22.15;13.27;;;;;;;15.43;100.00;101319.25;5014395;28;20026;-75
2022/10/18 05:32:46;;;;;;;17.38;10.98;;;;;;;15.42;100.00;101318.44;4998839;28;20041;-76
2022/10/18 05:35:12;;;;;;;18.13;11.80;;;;;;;15.44;100.00;101320.09;4998242;28;20030;-76
2022/10/18 05:37:37;;;;;;;20.52;11.98;;;;;;;15.44;100.00;101318.13;5031705;28;20444;-76
2022/10/18 05:40:03;;;;;;;17.75;11.82;;;;;;;15.42;100.00;101317.59;5033752;28;20025;-76
2022/10/18 05:42:29;;;;;;;23.08;12.07;;;;;;;15.44;100.00;101320.94;5015068;28;20113;-76
2022/10/18 05:44:54;;;;;;;18.92;11.65;;;;;;;15.43;100.00;101319.25;5017395;28;20405;-76
2022/10/18 05:47:19;;;;;;;23.42;14.05;;;;;;;15.44;100.00;101317.31;5015206;28;20038;-76
2022/10/18 05:49:46;;;;;;;21.55;14.23;;;;;;;15.42;100.00;101312.84;5018833;28;20029;-76
2022/10/18 05:52:12;;;;;;;18.90;13.10;;;;;;;15.41;100.00;101311.19;5021804;28;20040;-76
2022/10/18 05:54:37;;;;;;;21.40;13.15;;;;;;;15.42;100.00;101312.00;5021580;28;20037;-76
2022/10/18 05:57:03;;;;;;;20.00;12.77;;;;;;;15.41;100.00;101315.97;5054533;28;20036;-76
2022/10/18 05:59:28;;;;;;;27.05;15.25;;;;;;;15.38;100.00;101317.41;5021427;28;20028;-76
2022/10/18 06:01:54;;;;;;;23.52;12.65;;;;;;;15.38;100.00;101311.81;5005107;28;20029;-76
2022/10/18 06:04:19;;;;;;;21.67;13.57;;;;;;;15.38;100.00;101316.56;4999125;28;20029;-76
2022/10/18 06:06:45;;;;;;;20.70;12.25;;;;;;;15.38;100.00;101323.00;5010262;28;20121;-75
2022/10/18 06:09:10;;;;;;;24.45;14.38;;;;;;;15.37;100.00;101314.88;5017383;28;20037;-76
2022/10/18 06:11:36;;;;;;;22.23;14.30;;;;;;;15.35;100.00;101315.22;4991205;28;20022;-76
2022/10/18 06:14:01;;;;;;;21.77;13.88;;;;;;;15.34;100.00;101316.34;5000745;28;20643;-76
2022/10/18 06:16:27;;;;;;;23.20;13.60;;;;;;;15.34;100.00;101305.13;5018266;28;20034;-75
2022/10/18 06:18:54;;;;;;;23.20;14.70;;;;;;;15.31;100.00;101310.53;5020023;28;20029;-76
2022/10/18 06:21:19;;;;;;;25.50;15.55;;;;;;;15.27;100.00;101318.72;5020599;28;20072;-75
2022/10/18 06:23:49;;;;;;;25.98;14.77;;;;;;;15.25;100.00;101317.34;5012218;28;20033;-75
2022/10/18 06:26:14;;;;;;;23.40;13.88;;;;;;;15.23;100.00;101314.03;5033948;28;20439;-75
2022/10/18 06:28:40;;;;;;;20.27;13.50;;;;;;;15.24;100.00;101321.28;5024909;28;20087;-74
2022/10/18 06:31:05;;;;;;;19.83;11.73;;;;;;;15.22;100.00;101315.16;5038474;28;20095;-74
2022/10/18 06:33:31;;;;;;;19.15;12.20;;;;;;;15.17;100.00;101305.72;5018148;28;20562;-74
2022/10/18 06:35:58;;;;;;;21.00;13.35;;;;;;;15.16;100.00;101308.84;5001508;28;20025;-74
2022/10/18 06:38:24;;;;;;;24.20;12.98;;;;;;;15.14;100.00;101311.09;5001521;28;20094;-74
2022/10/18 06:40:50;;;;;;;22.23;13.02;;;;;;;15.08;100.00;101304.75;5001757;28;20025;-74
2022/10/18 06:43:15;;;;;;;24.95;14.10;;;;;;;15.07;100.00;101313.44;5017744;28;20029;-74
2022/10/18 06:45:41;;;;;;;21.20;12.95;;;;;;;15.04;100.00;101308.47;5017844;28;20050;-74
2022/10/18 06:48:06;;;;;;;20.15;12.90;;;;;;;15.02;100.00;101302.34;5001167;28;20041;-74
2022/10/18 06:50:32;;;;;;;18.90;12.02;;;;;;;15.00;100.00;101293.44;4984752;28;20032;-74
2022/10/18 06:52:57;;;;;;;26.40;15.32;;;;;;;14.94;100.00;101296.31;5017710;28;20030;-74
2022/10/18 06:55:23;;;;;;;26.13;13.50;;;;;;;14.91;100.00;101296.09;5030580;28;20041;-74
2022/10/18 06:57:48;;;;;;;21.85;12.73;;;;;;;14.90;100.00;101300.84;5017454;28;20038;-74
2022/10/18 07:00:14;;;;;;;19.67;12.05;;;;;;;14.87;100.00;101301.44;5028527;28;20497;-74
2022/10/18 07:02:40;;;;;;;19.27;12.98;;;;;;;14.86;100.00;101299.78;5017412;28;20029;-74
2022/10/18 07:05:06;;;;;;;23.00;13.55;;;;;;;14.85;100.00;101300.09;5036929;28;20025;-74
2022/10/18 07:07:32;;;;;;;24.15;13.93;;;;;;;14.84;100.00;101307.66;5004310;28;20050;-74
2022/10/18 07:09:58;;;;;;;23.30;13.93;;;;;;;14.84;100.00;101304.84;5015684;28;20057;-73
2022/10/18 07:12:24;;;;;;;23.90;12.60;;;;;;;14.84;100.00;101301.22;4994670;28;20043;-73
2022/10/18 07:14:49;;;;;;;22.40;13.35;;;;;;;14.88;100.00;101307.91;5002145;28;20442;-74
2022/10/18 07:17:15;;;;;;;24.88;12.95;;;;;;;14.90;100.00;101308.41;5019042;28;20494;-74
2022/10/18 07:19:40;;;;;;;24.10;14.65;;;;;;;14.92;100.00;101315.34;5020991;28;20017;-74
2022/10/18 07:22:06;;;;;;;21.92;15.45;;;;;;;14.93;100.00;101319.84;5020285;28;20021;-74
2022/10/18 07:24:31;;;;;;;24.52;15.88;;;;;;;14.98;100.00;101314.13;5004134;28;20032;-74
2022/10/18 07:26:57;;;;;;;21.88;14.25;;;;;;;14.98;100.00;101318.91;5000742;28;20474;-75
2022/10/18 07:29:22;;;;;;;21.80;13.50;;;;;;;15.01;100.00;101323.06;5016978;28;20033;-74
2022/10/18 07:31:48;;;;;;;25.75;15.13;;;;;;;15.04;100.00;101326.06;5016444;28;20057;-74
2022/10/18 07:34:13;;;;;;;24.25;15.40;;;;;;;15.08;100.00;101334.69;5032700;28;20091;-74
2022/10/18 07:36:39;;;;;;;23.50;14.85;;;;;;;15.10;100.00;101326.81;5023420;28;20029;-74
2022/10/18 07:39:05;;;;;;;26.52;15.60;;;;;;;15.11;100.00;101329.31;5023584;28;20116;-74
2022/10/18 07:41:33;;;;;;;27.13;16.35;;;;;;;15.13;100.00;101332.66;5023205;28;20031;-74
2022/10/18 07:43:59;;;;;;;26.35;15.50;;;;;;;15.18;100.00;101329.78;5007803;28;20146;-74
2022/10/18 07:46:24;;;;;;;27.60;16.00;;;;;;;15.22;100.00;101341.19;5025268;28;20046;-73
2022/10/18 07:48:50;;;;;;;22.83;14.07;;;;;;;15.24;100.00;101336.13;5006673;28;20079;-74
2022/10/18 07:51:16;;;;;;;25.08;15.60;;;;;;;15.28;100.00;101342.75;5039904;28;20033;-74
2022/10/18 07:53:41;;;;;;;20.92;13.38;;;;;;;15.32;100.00;101343.81;4999506;28;20032;-74
2022/10/18 07:56:10;;;;;;;26.00;14.15;;;;;;;15.34;100.00;101343.50;5020857;28;20032;-74
2022/10/18 07:58:36;;;;;;;27.30;14.43;;;;;;;15.37;100.00;101332.50;5016739;28;20088;-74
2022/10/18 08:01:05;;;;;;;23.23;13.38;;;;;;;15.43;100.00;101344.44;5003421;28;20585;-74
2022/10/18 08:03:30;;;;;;;28.42;14.20;;;;;;;15.42;100.00;101343.63;5016268;28;20061;-73
2022/10/18 08:05:56;;;;;;;26.90;13.90;;;;;;;15.47;100.00;101339.91;5017372;28;20053;-73
2022/10/18 08:08:21;;;;;;;26.10;13.45;;;;;;;15.48;100.00;101344.38;5036143;28;20040;-75
2022/10/18 08:10:47;;;;;;;24.90;14.20;;;;;;;15.51;100.00;101348.53;5000052;28;20033;-74
2022/10/18 08:13:13;;;;;;;31.33;14.75;;;;;;;15.55;100.00;101341.19;5010402;28;20022;-73
2022/10/18 08:15:38;;;;;;;26.13;14.65;;;;;;;15.56;100.00;101352.06;5021743;28;20090;-73
2022/10/18 08:18:04;;;;;;;24.50;13.82;;;;;;;15.58;100.00;101346.16;5006101;28;20025;-74
2022/10/18 08:20:30;;;;;;;27.40;13.90;;;;;;;15.62;100.00;101350.00;4990980;28;20482;-74
2022/10/18 08:22:56;;;;;;;26.63;13.52;;;;;;;15.64;100.00;101356.94;4984067;28;20087;-74
2022/10/18 08:25:21;;;;;;;19.58;12.40;;;;;;;15.65;100.00;101352.19;4999622;28;20041;-74
2022/10/18 08:27:47;;;;;;;21.08;11.95;;;;;;;15.70;100.00;101352.13;4999669;28;20129;-74
2022/10/18 08:30:13;;;;;;;21.83;11.73;;;;;;;15.71;100.00;101344.53;4998940;28;20057;-74
2022/10/18 08:32:38;;;;;;;18.40;10.85;;;;;;;15.76;100.00;101345.28;5005988;28;20043;-74
2022/10/18 08:35:04;;;;;;;18.20;10.15;;;;;;;15.81;100.00;101348.00;5022111;28;20122;-74
2022/10/18 08:37:30;;;;;;;20.77;10.00;;;;;;;15.89;100.00;101348.44;5038985;28;20477;-74
2022/10/18 08:39:55;;;;;;;15.40;9.35;;;;;;;15.93;100.00;101349.44;5022276;28;20033;-74
2022/10/18 08:42:32;;;;;;;16.90;9.15;;;;;;;15.99;100.00;101348.19;5020446;28;20033;-74
2022/10/18 08:44:58;;;;;;;22.27;9.77;;;;;;;16.04;100.00;101350.91;4999138;28;20165;-75
2022/10/18 08:47:38;;;;;;;18.05;8.45;;;;;;;16.09;100.00;101353.63;5024660;28;20055;-75
2022/10/18 08:50:10;;;;;;;14.63;8.80;;;;;;;16.12;100.00;101347.38;5022590;28;20029;-74
2022/10/18 08:52:54;;;;;;;13.88;8.45;;;;;;;16.17;100.00;101357.69;5035240;28;20025;-75
2022/10/18 08:55:35;;;;;;;12.32;8.23;;;;;;;16.21;100.00;101351.13;5036350;28;20045;-75
2022/10/18 08:58:19;;;;;;;14.35;8.35;;;;;;;16.27;100.00;101352.69;5026553;28;20052;-74
2022/10/18 09:01:17;;;;;;;13.07;8.18;;;;;;;16.34;100.00;101343.84;5039635;28;20053;-73
2022/10/18 09:04:07;;;;;;;14.93;8.27;;;;;;;16.40;100.00;101347.38;5029521;28;20030;-74
2022/10/18 09:06:52;;;;;;;12.02;7.63;;;;;;;16.43;100.00;101336.34;5034660;28;20144;-73
2022/10/18 09:09:57;;;;;;;16.63;8.40;;;;;;;16.51;100.00;101338.41;5014948;28;20053;-74
2022/10/18 09:12:53;;;;;;;14.43;7.75;;;;;;;16.54;100.00;101340.59;5021367;28;20049;-74
2022/10/18 09:15:21;;;;;;;15.52;7.72;;;;;;;16.62;100.00;101341.00;5046272;28;20092;-74
2022/10/18 09:17:58;;;;;;;10.10;6.82;;;;;;;16.67;100.00;101340.91;5032265;28;20030;-74
2022/10/18 09:20:25;;;;;;;10.93;6.00;;;;;;;16.68;100.00;101343.38;5033721;28;20029;-74
2022/10/18 09:22:55;;;;;;;7.18;5.32;;;;;;;16.74;100.00;101347.75;5012974;28;20033;-74
2022/10/18 09:25:24;;;;;;;8.63;5.35;;;;;;;16.79;100.00;101337.56;5027449;28;20048;-74
2022/10/18 09:28:00;;;;;;;10.70;5.28;;;;;;;16.84;100.00;101335.47;5038334;28;20037;-74
2022/10/18 09:30:59;;;;;;;8.38;5.18;;;;;;;16.91;100.00;101335.03;5054737;28;20025;-74
2022/10/18 09:33:27;;;;;;;6.57;4.53;;;;;;;16.93;100.00;101330.75;5046438;28;20124;-74
2022/10/18 09:35:57;;;;;;;9.38;4.85;;;;;;;16.99;100.00;101328.66;5035781;28;20087;-73
2022/10/18 09:38:26;;;;;;;9.15;4.95;;;;;;;17.02;100.00;101319.63;5014090;28;20030;-74
2022/10/18 09:41:06;;;;;;;8.77;4.53;;;;;;;17.10;100.00;101326.44;5011681;28;20025;-74
2022/10/18 09:43:56;;;;;;;8.20;4.43;;;;;;;17.15;100.00;101335.56;5002604;28;20053;-73
2022/10/18 09:46:24;;;;;;;7.68;3.85;;;;;;;17.25;100.00;101333.66;5025457;28;20737;-74
2022/10/18 09:49:04;;;;;;;9.75;3.35;;;;;;;17.26;100.00;101330.53;5038423;28;20433;-73
2022/10/18 09:51:34;;;;;;;8.00;4.35;;;;;;;17.30;100.00;101334.38;5003503;28;20030;-74
2022/10/18 09:54:17;;;;;;;7.60;4.00;;;;;;;17.37;100.00;101334.72;5038769;28;20037;-73
2022/10/18 09:56:46;;;;;;;7.65;3.72;;;;;;;17.41;100.00;101320.88;5038564;28;20040;-73
2022/10/18 09:59:24;;;;;;;8.30;4.28;;;;;;;17.47;100.00;101330.84;5030119;28;20524;-73
2022/10/18 10:01:49;;;;;;;6.10;4.05;;;;;;;17.51;100.00;101328.22;5058718;28;20029;-73
2022/10/18 10:04:15;;;;;;;6.63;3.97;;;;;;;17.54;100.00;101331.19;5023334;28;20029;-73
2022/10/18 10:06:47;;;;;;;7.53;4.20;;;;;;;17.57;100.00;101338.16;5018435;28;20049;-73
2022/10/18 10:09:14;;;;;;;6.75;4.13;;;;;;;17.60;100.00;101327.09;5017248;28;20434;-74
2022/10/18 10:11:44;;;;;;;8.82;4.20;;;;;;;17.62;100.00;101336.03;4985498;28;20056;-74
2022/10/18 10:14:14;;;;;;;9.50;4.40;;;;;;;17.66;100.00;101330.59;4994290;28;20037;-74
2022/10/18 10:16:50;;;;;;;9.38;4.88;;;;;;;17.68;100.00;101327.47;5022421;28;20398;-74
2022/10/18 10:19:21;;;;;;;6.88;3.80;;;;;;;17.70;100.00;101334.44;5030839;28;20117;-74
2022/10/18 10:21:47;;;;;;;6.15;3.58;;;;;;;17.68;100.00;101335.91;5004943;28;20057;-74
2022/10/18 10:24:24;;;;;;;7.93;3.33;;;;;;;17.70;100.00;101323.19;5030615;28;20068;-74
2022/10/18 10:26:50;;;;;;;8.73;3.45;;;;;;;17.74;100.00;101315.78;5008542;28;20032;-74
2022/10/18 10:29:46;;;;;;;5.22;3.47;;;;;;;17.76;100.00;101318.28;5041290;28;20029;-74
2022/10/18 10:32:16;;;;;;;7.15;3.25;;;;;;;17.80;100.00;101322.09;5043306;28;20064;-74
2022/10/18 10:34:41;;;;;;;10.35;3.80;;;;;;;17.82;100.00;101319.81;5021546;28;20029;-74
2022/10/18 10:37:35;;;;;;;10.73;3.97;;;;;;;17.82;100.00;101312.22;5022579;28;20033;-75
2022/10/18 10:40:18;;;;;;;9.90;3.67;;;;;;;17.88;100.00;101315.69;5040222;28;20067;-74
2022/10/18 10:42:57;;;;;;;;;;;;;;;17.86;100.00;101318.03;5057870;28;20525;-74
2022/10/18 10:45:23;;;;;;;9.38;3.55;;;;;;;17.91;100.00;101314.22;5034505;28;20369;-74
2022/10/18 10:47:48;;;;;;;10.20;4.20;;;;;;;17.94;100.00;101317.25;5033116;28;20120;-74
2022/10/18 10:50:25;;;;;;;9.30;3.85;;;;;;;17.94;100.00;101320.06;5011411;28;20117;-74
2022/10/18 10:52:51;;;;;;;5.22;3.45;;;;;;;17.97;100.00;101325.03;5007827;28;20020;-74
2022/10/18 10:55:18;;;;;;;6.10;3.55;;;;;;;17.97;100.00;101310.13;5040088;28;20055;-74
2022/10/18 10:57:45;;;;;;;7.20;3.72;;;;;;;18.00;100.00;101321.56;5024192;28;20029;-74
2022/10/18 11:00:41;;;;;;;7.30;4.13;;;;;;;18.03;100.00;101322.91;5024002;28;20030;-74
2022/10/18 11:03:11;;;;;;;8.35;4.47;;;;;;;18.00;100.00;101315.94;5015469;28;20033;-74
2022/10/18 11:05:46;;;;;;;7.55;3.80;;;;;;;17.99;100.00;101319.88;5031732;28;20022;-74
2022/10/18 11:08:37;;;;;;;6.60;3.88;;;;;;;18.03;100.00;101325.69;5024174;28;20077;-74
2022/10/18 11:11:26;;;;;;;8.13;3.97;;;;;;;18.01;100.00;101311.97;4993975;28;20021;-74
2022/10/18 11:14:00;;;;;;;8.52;3.55;;;;;;;18.04;100.00;101316.09;5005385;28;20091;-75
2022/10/18 11:16:32;;;;;;;8.77;3.90;;;;;;;18.05;100.00;101300.88;5031398;28;20029;-74